Time;durP1;ratioP1;P1;durP2;ratioP2;P2;SDS_P1;SDS_P2;PMS_P1;PMS_P2;Temp;Humidity;BMP_temperature;BMP_pressure;BME280_temperature;BME280_humidity;BME280_pressure;Samples;Min_cycle;Max_cycle;Signal;HPM_P1;HPM_P2
2021/06/17 00:01:25;;;;;;;1.27;1.17;;;22.10;99.90;;;22.55;100.00;-21291.81;5072554;28;20481;-78
2021/06/17 00:03:54;;;;;;;0.80;0.63;;;22.10;99.90;;;22.41;100.00;-21288.00;5055612;28;20551;-78
2021/06/17 00:06:22;;;;;;;0.73;0.60;;;22.10;99.90;;;22.32;100.00;-21285.56;5053633;28;20565;-78
2021/06/17 00:08:50;;;;;;;0.70;0.60;;;22.00;99.90;;;22.35;100.00;-21286.38;5039116;28;20466;-78
2021/06/17 00:11:17;;;;;;;0.80;0.70;;;22.00;99.90;;;22.52;100.00;-21291.00;5062798;28;20449;-79
2021/06/17 00:13:45;;;;;;;0.80;0.70;;;22.10;99.90;;;22.52;100.00;-21290.88;5075987;28;20434;-78
2021/06/17 00:16:13;;;;;;;0.80;0.70;;;22.10;99.90;;;22.48;100.00;-21289.91;5075454;28;20530;-77
2021/06/17 00:18:41;;;;;;;0.73;0.60;;;22.10;99.90;;;22.39;100.00;-21287.47;5075766;28;20487;-78
2021/06/17 00:21:10;;;;;;;0.77;0.60;;;22.10;99.90;;;22.29;100.00;-21284.75;5070322;28;20757;-78
2021/06/17 00:23:40;;;;;;;0.80;0.70;;;22.00;99.90;;;22.14;100.00;-21280.94;5055407;28;20475;-78
2021/06/17 00:26:07;;;;;;;0.80;0.70;;;21.90;99.90;;;22.10;100.00;-21279.81;5046238;28;20482;-79
2021/06/17 00:28:35;;;;;;;0.80;0.60;;;21.80;99.90;;;22.01;100.00;-21277.25;5074793;28;20431;-78
2021/06/17 00:31:03;;;;;;;0.80;0.67;;;21.70;99.90;;;21.98;100.00;-21276.41;5075620;28;20443;-78
2021/06/17 00:33:32;;;;;;;0.80;0.70;;;21.70;99.90;;;21.96;100.00;-21276.00;5092297;28;20809;-78
2021/06/17 00:36:00;;;;;;;0.70;0.60;;;21.60;99.90;;;21.88;100.00;-21273.84;5064004;28;20449;-76
2021/06/17 00:38:30;;;;;;;0.80;0.60;;;21.50;99.90;;;21.77;100.00;-21270.84;5075089;28;20470;-77
2021/06/17 00:40:59;;;;;;;0.80;0.70;;;21.50;99.90;;;21.66;100.00;-21267.97;5070605;28;20456;-79
2021/06/17 00:43:26;;;;;;;0.80;0.70;;;21.40;99.90;;;21.54;100.00;-21264.69;5041429;28;20467;-78
2021/06/17 00:45:54;;;;;;;0.70;0.60;;;21.30;99.90;;;21.51;100.00;-21264.03;5073664;28;20917;-78
2021/06/17 00:48:22;;;;;;;0.80;0.70;;;21.20;99.90;;;21.56;100.00;-21265.38;5075715;28;20431;-78
2021/06/17 00:50:53;;;;;;;0.80;0.70;;;21.20;99.90;;;21.71;100.00;-21269.47;5073754;28;20442;-78
2021/06/17 00:53:25;;;;;;;0.70;0.60;;;21.30;99.90;;;21.85;100.00;-21273.03;5075566;28;20968;-77
2021/06/17 00:55:54;;;;;;;0.70;0.57;;;21.30;99.90;;;21.92;100.00;-21274.94;5074938;28;20435;-78
2021/06/17 00:58:23;;;;;;;0.80;0.67;;;21.40;99.90;;;22.19;100.00;-21282.28;5091691;28;20422;-77
2021/06/17 01:00:50;;;;;;;0.80;0.70;;;21.60;99.90;;;22.14;100.00;-21280.78;5073733;28;20787;-79
2021/06/17 01:03:20;;;;;;;1.53;1.43;;;21.70;99.90;;;22.14;100.00;-21280.78;5060067;28;20466;-78
2021/06/17 01:05:49;;;;;;;0.80;0.60;;;21.70;99.90;;;22.43;100.00;-21288.56;5055581;28;20453;-78
2021/06/17 01:08:36;;;;;;;0.80;0.60;;;21.80;99.90;;;22.39;100.00;-21287.47;5062015;28;20445;-77
2021/06/17 01:11:19;;;;;;;0.77;0.60;;;21.90;99.90;;;22.38;100.00;-21287.31;5071140;28;20923;-77
2021/06/17 01:13:53;;;;;;;0.70;0.60;;;21.90;99.90;;;22.46;100.00;-21289.38;5056493;28;20416;-78
2021/06/17 01:16:30;;;;;;;0.70;0.60;;;21.90;99.90;;;22.61;100.00;-21293.44;5054287;28;20803;-78
2021/06/17 01:19:07;;;;;;;0.70;0.60;;;22.00;99.90;;;22.44;100.00;-21288.81;5058472;28;20562;-78
2021/06/17 01:22:06;;;;;;;0.80;0.70;;;22.00;99.90;;;22.45;100.00;-21289.09;5058467;28;20521;-79
2021/06/17 01:24:56;;;;;;;0.80;0.70;;;22.00;99.90;;;22.53;100.00;-21291.28;5045334;28;20462;-78
2021/06/17 01:28:09;;;;;;;0.80;0.80;;;22.00;99.90;;;22.58;100.00;-21292.63;5057325;28;20439;-78
2021/06/17 01:31:02;;;;;;;0.80;0.70;;;22.00;99.90;;;22.38;100.00;-21287.31;5073281;28;20930;-77
2021/06/17 01:33:35;;;;;;;0.70;0.60;;;22.00;99.90;;;22.34;100.00;-21286.09;5054482;28;20920;-78
2021/06/17 01:36:06;;;;;;;0.80;0.63;;;22.00;99.90;;;22.17;100.00;-21281.59;5072802;28;20438;-78
2021/06/17 01:38:37;;;;;;;0.80;0.70;;;21.90;99.90;;;22.06;100.00;-21278.59;5074315;28;20447;-79
2021/06/17 01:41:06;;;;;;;0.80;0.70;;;21.80;99.90;;;21.92;100.00;-21274.94;5057082;28;20443;-79
2021/06/17 01:43:37;;;;;;;0.80;0.80;;;21.70;99.90;;;21.75;100.00;-21270.44;5056344;28;20460;-79
2021/06/17 01:46:06;;;;;;;0.77;0.60;;;21.50;99.90;;;21.73;100.00;-21269.88;5055331;28;20419;-79
2021/06/17 01:48:35;;;;;;;0.80;0.70;;;21.40;99.90;;;21.70;100.00;-21269.06;5055466;28;20446;-79
2021/06/17 01:51:02;;;;;;;0.80;0.70;;;21.40;99.90;;;21.82;100.00;-21272.19;5061356;28;20424;-79
2021/06/17 01:53:30;;;;;;;0.80;0.70;;;21.40;99.90;;;21.81;100.00;-21271.94;5039272;28;20463;-79
2021/06/17 01:56:00;;;;;;;0.80;0.70;;;21.30;99.90;;;21.85;100.00;-21273.16;5065401;28;20471;-79
2021/06/17 01:58:29;;;;;;;0.80;0.70;;;21.40;99.90;;;21.97;100.00;-21276.28;5073557;28;20435;-79
2021/06/17 02:01:03;;;;;;;1.00;0.90;;;21.40;99.90;;;21.76;100.00;-21270.69;5063856;28;20466;-78
2021/06/17 02:03:33;;;;;;;0.80;0.70;;;21.40;99.90;;;21.75;100.00;-21270.44;5053143;28;20475;-77
2021/06/17 02:06:03;;;;;;;0.80;0.70;;;21.30;99.90;;;21.63;100.00;-21267.28;5053745;28;20538;-77
2021/06/17 02:08:31;;;;;;;0.70;0.60;;;21.30;99.90;;;21.54;100.00;-21264.84;5072803;28;20556;-77
2021/06/17 02:10:58;;;;;;;0.80;0.73;;;21.20;99.90;;;21.53;100.00;-21264.56;5072266;28;20518;-79
2021/06/17 02:13:27;;;;;;;0.80;0.70;;;21.20;99.90;;;21.42;100.00;-21261.56;5054853;28;20404;-79
2021/06/17 02:15:57;;;;;;;0.80;0.60;;;21.10;99.90;;;21.42;100.00;-21261.56;5053214;28;20813;-79
2021/06/17 02:18:28;;;;;;;0.80;0.80;;;21.00;99.90;;;21.43;100.00;-21261.84;5075387;28;20822;-79
2021/06/17 02:20:56;;;;;;;0.80;0.70;;;21.00;99.90;;;21.44;100.00;-21262.13;5072388;28;20523;-78
2021/06/17 02:23:26;;;;;;;0.80;0.70;;;21.00;99.90;;;21.42;100.00;-21261.56;5074222;28;20471;-78
2021/06/17 02:25:56;;;;;;;0.80;0.60;;;20.90;99.90;;;21.36;100.00;-21259.94;5073630;28;20510;-79
2021/06/17 02:28:29;;;;;;;0.90;0.90;;;20.90;99.90;;;21.42;100.00;-21261.56;5089747;28;20435;-78
2021/06/17 02:31:06;;;;;;;0.80;0.60;;;20.90;99.90;;;21.49;100.00;-21263.47;5089883;28;20808;-79
2021/06/17 02:33:37;;;;;;;0.80;0.70;;;20.90;99.90;;;21.50;100.00;-21263.75;5054788;28;20470;-79
2021/06/17 02:36:06;;;;;;;0.80;0.70;;;21.00;99.90;;;21.42;100.00;-21261.56;5067607;28;20442;-79
2021/06/17 02:38:39;;;;;;;1.27;1.00;;;21.00;99.90;;;21.55;100.00;-21265.13;5071064;28;20851;-79
2021/06/17 02:41:13;;;;;;;0.70;0.60;;;21.00;99.90;;;21.44;100.00;-21262.13;5065780;28;20975;-79
2021/06/17 02:43:47;;;;;;;0.80;0.60;;;21.00;99.90;;;21.61;100.00;-21266.59;5053165;28;20435;-78
2021/06/17 02:46:15;;;;;;;0.80;0.70;;;21.00;99.90;;;21.50;100.00;-21263.75;5066791;28;20447;-79
2021/06/17 02:48:44;;;;;;;0.80;0.70;;;21.00;99.90;;;21.34;100.00;-21259.38;5071516;28;20815;-79
2021/06/17 02:51:11;;;;;;;0.70;0.60;;;20.90;99.90;;;21.44;100.00;-21262.13;5072778;28;20421;-79
2021/06/17 02:53:39;;;;;;;0.90;0.80;;;20.90;99.90;;;21.40;100.00;-21261.16;5058190;28;20566;-80
2021/06/17 02:56:13;;;;;;;0.80;0.70;;;20.90;99.90;;;21.78;100.00;-21271.25;5064735;28;20792;-79
2021/06/17 02:59:14;;;;;;;0.77;0.70;;;21.00;99.90;;;21.80;100.00;-21271.78;5072789;28;20471;-79
2021/06/17 03:01:51;;;;;;;0.70;0.60;;;21.30;99.90;;;21.79;100.00;-21271.50;5057188;28;20480;-79
2021/06/17 03:04:44;;;;;;;0.80;0.70;;;21.30;99.90;;;21.54;100.00;-21264.69;5053322;28;20536;-79
2021/06/17 03:07:20;;;;;;;0.80;0.70;;;21.20;99.90;;;21.71;100.00;-21269.47;5053887;28;20493;-79
2021/06/17 03:09:56;;;;;;;0.80;0.60;;;21.20;99.90;;;21.84;100.00;-21272.88;5035376;28;20476;-79
2021/06/17 03:12:27;;;;;;;0.70;0.63;;;21.30;99.90;;;21.77;100.00;-21270.97;5057915;28;20451;-79
2021/06/17 03:14:58;;;;;;;0.80;0.70;;;21.30;99.90;;;22.00;100.00;-21277.09;5070988;28;20463;-79
2021/06/17 03:17:28;;;;;;;0.80;0.70;;;21.40;99.90;;;21.93;100.00;-21275.19;5073688;28;20433;-80
2021/06/17 03:19:59;;;;;;;0.80;0.60;;;21.40;99.90;;;21.91;100.00;-21274.78;5055768;28;20435;-79
2021/06/17 03:22:29;;;;;;;0.70;0.60;;;21.40;99.90;;;21.75;100.00;-21270.28;5071700;28;21119;-79
2021/06/17 03:25:02;;;;;;;0.80;0.70;;;21.30;99.90;;;21.71;100.00;-21269.47;5089114;28;20458;-79
2021/06/17 03:27:31;;;;;;;0.70;0.60;;;21.30;99.90;;;21.64;100.00;-21267.56;5088524;28;20431;-79
2021/06/17 03:30:00;;;;;;;0.80;0.70;;;21.20;99.90;;;21.62;100.00;-21267.03;5073546;28;20473;-79
2021/06/17 03:32:29;;;;;;;0.70;0.63;;;21.10;99.90;;;21.64;100.00;-21267.56;5055853;28;20513;-79
2021/06/17 03:35:01;;;;;;;0.80;0.70;;;21.10;99.90;;;21.75;100.00;-21270.44;5067845;28;20463;-79
2021/06/17 03:37:29;;;;;;;1.10;0.80;;;21.20;99.90;;;21.68;100.00;-21268.66;5055084;28;20745;-79
2021/06/17 03:40:00;;;;;;;0.70;0.60;;;21.10;99.90;;;21.67;100.00;-21268.38;5053424;28;20418;-79
2021/06/17 03:42:30;;;;;;;0.80;0.70;;;21.20;99.90;;;21.63;100.00;-21267.16;5065558;28;20788;-80
2021/06/17 03:44:59;;;;;;;0.73;0.60;;;21.10;99.90;;;21.68;100.00;-21268.66;5071655;28;20493;-79
2021/06/17 03:47:30;;;;;;;0.80;0.70;;;21.10;99.90;;;21.69;100.00;-21268.94;5068644;28;20438;-79
2021/06/17 03:50:00;;;;;;;0.80;0.70;;;21.10;99.90;;;21.76;100.00;-21270.56;5064700;28;20958;-79
2021/06/17 03:52:28;;;;;;;0.70;0.60;;;21.10;99.90;;;21.76;100.00;-21270.56;5055276;28;20444;-79
2021/06/17 03:54:57;;;;;;;0.80;0.70;;;21.20;99.90;;;21.65;100.00;-21267.84;5051975;28;20471;-79
2021/06/17 03:57:25;;;;;;;0.80;0.70;;;21.20;99.90;;;21.62;100.00;-21267.03;5052088;28;20550;-78
2021/06/17 03:59:56;;;;;;;0.80;0.70;;;21.20;99.90;;;21.67;100.00;-21268.38;5069016;28;20482;-78
2021/06/17 04:02:27;;;;;;;0.77;0.63;;;21.10;99.90;;;21.66;100.00;-21268.13;5070610;28;20518;-79
2021/06/17 04:04:55;;;;;;;0.90;0.87;;;21.20;99.90;;;21.74;100.00;-21270.16;5053757;28;20458;-79
2021/06/17 04:07:25;;;;;;;0.80;0.60;;;21.10;99.90;;;21.74;100.00;-21270.16;5053775;28;20569;-79
2021/06/17 04:09:58;;;;;;;0.80;0.80;;;21.20;99.90;;;21.81;100.00;-21271.94;5054318;28;20492;-78
2021/06/17 04:12:29;;;;;;;0.77;0.70;;;21.30;99.90;;;21.88;100.00;-21273.84;5070749;28;20492;-79
2021/06/17 04:15:01;;;;;;;0.80;0.60;;;21.30;99.90;;;21.93;100.00;-21275.19;5071338;28;20534;-79
2021/06/17 04:17:35;;;;;;;0.80;0.70;;;21.40;99.90;;;21.91;100.00;-21274.78;5072321;28;20415;-78
2021/06/17 04:20:06;;;;;;;0.80;0.70;;;21.40;99.90;;;21.96;100.00;-21276.00;5072735;28;20908;-80
2021/06/17 04:22:39;;;;;;;0.70;0.60;;;21.40;99.90;;;22.15;100.00;-21281.06;5070818;28;20470;-79
2021/06/17 04:25:10;;;;;;;0.80;0.70;;;21.50;99.90;;;22.13;100.00;-21280.50;5070031;28;20447;-79
2021/06/17 04:27:40;;;;;;;0.80;0.70;;;21.50;99.90;;;22.07;100.00;-21278.88;5073218;28;20467;-79
2021/06/17 04:30:10;;;;;;;0.80;0.70;;;21.60;99.90;;;22.18;100.00;-21282.00;5054993;28;20518;-79
2021/06/17 04:32:40;;;;;;;0.80;0.70;;;21.60;99.90;;;22.17;100.00;-21281.59;5071402;28;20436;-79
2021/06/17 04:35:11;;;;;;;0.70;0.60;;;21.60;99.90;;;22.25;100.00;-21283.66;5053993;28;20467;-79
2021/06/17 04:37:41;;;;;;;0.70;0.70;;;21.70;99.90;;;22.18;100.00;-21282.00;5054354;28;20428;-79
2021/06/17 04:40:11;;;;;;;0.73;0.60;;;21.60;99.90;;;22.35;100.00;-21286.50;5071037;28;20407;-79
2021/06/17 04:42:39;;;;;;;0.80;0.63;;;21.70;99.90;;;22.32;100.00;-21285.56;5071668;28;20431;-79
2021/06/17 04:45:09;;;;;;;0.73;0.63;;;21.80;99.90;;;22.38;100.00;-21287.19;5088435;28;20426;-79
2021/06/17 04:47:38;;;;;;;0.80;0.70;;;21.80;99.90;;;22.52;100.00;-21291.00;5071476;28;20412;-79
2021/06/17 04:50:08;;;;;;;0.80;0.60;;;21.90;99.90;;;22.59;100.00;-21292.91;5073076;28;20423;-79
2021/06/17 04:52:47;;;;;;;0.80;0.73;;;21.90;99.90;;;22.64;100.00;-21294.28;5072864;28;20459;-79
2021/06/17 04:55:15;;;;;;;0.80;0.70;;;22.10;99.90;;;22.62;100.00;-21293.72;5074242;28;21007;-79
2021/06/17 04:57:42;;;;;;;0.70;0.60;;;22.10;99.90;;;22.73;100.00;-21296.59;5074673;28;20457;-79
2021/06/17 05:00:12;;;;;;;0.77;0.70;;;22.10;99.90;;;22.86;100.00;-21299.97;5058357;28;20430;-79
2021/06/17 05:02:39;;;;;;;0.83;0.80;;;22.20;99.90;;;22.87;100.00;-21300.25;5075253;28;20431;-80
2021/06/17 05:05:09;;;;;;;0.80;0.70;;;22.20;99.90;;;23.01;100.00;-21304.06;5076101;28;20428;-79
2021/06/17 05:12:54;;;;;;;0.80;0.70;;;22.40;99.90;;;23.04;100.00;-21304.88;5057387;28;20497;-79
2021/06/17 05:15:22;;;;;;;0.80;0.60;;;22.40;99.90;;;22.99;100.00;-21303.53;5074975;28;20508;-78
2021/06/17 05:17:50;;;;;;;0.80;0.70;;;22.50;99.90;;;23.20;100.00;-21308.97;5057380;28;20446;-78
2021/06/17 05:20:18;;;;;;;0.70;0.60;;;22.50;99.90;;;23.23;100.00;-21309.78;5076252;28;20408;-79
2021/06/17 05:22:46;;;;;;;0.80;0.70;;;22.60;99.90;;;23.28;100.00;-21311.28;5074738;28;21015;-79
2021/06/17 05:25:15;;;;;;;0.70;0.60;;;22.60;99.90;;;23.33;100.00;-21312.50;5075129;28;20508;-79
2021/06/17 05:27:43;;;;;;;0.80;0.67;;;22.70;99.90;;;23.38;100.00;-21313.84;5074004;28;20439;-78
2021/06/17 05:30:13;;;;;;;0.70;0.60;;;22.80;99.90;;;23.48;100.00;-21316.44;5074330;28;20424;-79
2021/06/17 05:32:42;;;;;;;0.80;0.70;;;22.80;99.90;;;23.41;100.00;-21314.53;5073642;28;20423;-78
2021/06/17 05:35:11;;;;;;;0.80;0.60;;;22.90;99.90;;;23.45;100.00;-21315.75;5073656;28;20459;-79
2021/06/17 05:37:39;;;;;;;0.70;0.60;;;22.90;99.90;;;23.57;100.00;-21319.03;5074336;28;20455;-78
2021/06/17 05:40:08;;;;;;;0.80;0.70;;;23.00;99.90;;;23.79;100.00;-21324.75;5074906;28;20816;-79
2021/06/17 05:42:37;;;;;;;0.80;0.70;;;23.10;99.90;;;23.83;100.00;-21325.81;5058055;28;20451;-79
2021/06/17 05:45:06;;;;;;;1.47;1.37;;;23.30;99.90;;;24.05;100.00;-21331.66;5068319;28;20447;-79
2021/06/17 05:47:36;;;;;;;0.80;0.70;;;23.50;99.90;;;24.24;100.00;-21336.69;5072036;28;20446;-80
2021/06/17 05:50:05;;;;;;;0.77;0.60;;;23.60;99.90;;;24.41;100.00;-21341.31;5074459;28;20381;-79
2021/06/17 05:52:33;;;;;;;0.80;0.60;;;23.80;99.90;;;24.62;100.00;-21346.88;5074270;28;20768;-79
2021/06/17 05:55:00;;;;;;;0.80;0.70;;;24.00;99.90;;;24.82;100.00;-21352.16;5074699;28;20455;-79
2021/06/17 05:57:28;;;;;;;0.70;0.60;;;24.20;99.90;;;24.96;100.00;-21355.97;5074632;28;20457;-79
2021/06/17 05:59:57;;;;;;;0.80;0.60;;;24.40;99.90;;;25.33;100.00;-21365.72;5058266;28;20409;-80
2021/06/17 06:02:25;;;;;;;1.07;0.97;;;24.60;98.10;;;25.46;100.00;-21369.25;5057975;28;20443;-79
2021/06/17 06:04:56;;;;;;;0.80;0.70;;;24.80;96.10;;;25.60;100.00;-21372.78;5072571;28;20431;-80
2021/06/17 06:07:24;;;;;;;0.77;0.60;;;25.00;94.40;;;25.78;100.00;-21377.66;5074297;28;20424;-80
2021/06/17 06:09:51;;;;;;;0.73;0.60;;;25.10;95.10;;;25.80;100.00;-21378.06;5074098;28;20461;-80
2021/06/17 06:12:18;;;;;;;0.97;0.87;;;25.20;93.60;;;26.05;100.00;-21384.84;5073274;28;20449;-79
2021/06/17 06:14:46;;;;;;;0.70;0.60;;;25.40;93.20;;;26.42;100.00;-21394.72;5058087;28;20473;-79
2021/06/17 06:17:15;;;;;;;0.80;0.63;;;25.60;93.10;;;26.41;100.00;-21394.44;5074032;28;20414;-79
2021/06/17 06:19:43;;;;;;;0.80;0.70;;;25.80;90.60;;;26.42;100.00;-21394.59;5073904;28;20493;-80
2021/06/17 06:22:10;;;;;;;0.80;0.60;;;25.90;90.50;;;26.53;100.00;-21397.56;5056573;28;20472;-81
2021/06/17 06:24:38;;;;;;;0.80;0.70;;;26.00;85.30;;;26.56;100.00;-21398.25;5074048;28;20493;-80
2021/06/17 06:27:08;;;;;;;0.80;0.70;;;26.00;81.00;;;26.43;100.00;-21394.84;5074153;28;21000;-80
2021/06/17 06:29:37;;;;;;;0.80;0.60;;;26.00;81.40;;;26.59;100.00;-21399.06;5065496;28;20440;-80
2021/06/17 06:32:08;;;;;;;0.70;0.60;;;26.00;83.00;;;26.31;100.00;-21391.59;5065767;28;20451;-80
2021/06/17 06:34:38;;;;;;;0.80;0.70;;;26.00;83.60;;;26.47;100.00;-21396.09;5073944;28;20463;-80
2021/06/17 06:37:05;;;;;;;0.77;0.67;;;26.00;83.00;;;26.56;100.00;-21398.25;5057137;28;20431;-80
2021/06/17 06:39:33;;;;;;;0.70;0.53;;;26.10;81.50;;;26.79;100.00;-21404.47;5072473;28;20471;-81
2021/06/17 06:42:01;;;;;;;0.70;0.60;;;26.10;80.60;;;26.85;100.00;-21406.09;5073338;28;20421;-80
2021/06/17 06:44:29;;;;;;;0.80;0.70;;;26.20;81.00;;;27.10;100.00;-21412.72;5073358;28;20424;-80
2021/06/17 06:46:59;;;;;;;0.77;0.60;;;26.40;75.30;;;27.10;100.00;-21412.56;5072546;28;20859;-80
2021/06/17 06:49:26;;;;;;;0.80;0.70;;;26.50;73.80;;;26.91;100.00;-21407.56;5073071;28;20761;-79
2021/06/17 06:51:56;;;;;;;0.77;0.60;;;26.50;72.20;;;26.72;100.00;-21402.72;5056973;28;20883;-80
2021/06/17 06:54:24;;;;;;;0.80;0.70;;;26.40;70.40;;;26.77;100.00;-21403.94;5074596;28;20995;-80
2021/06/17 06:56:52;;;;;;;0.80;0.60;;;26.30;72.00;;;27.04;100.00;-21410.97;5073261;28;20431;-80
2021/06/17 06:59:19;;;;;;;0.90;0.80;;;26.40;74.50;;;26.98;100.00;-21409.47;5072497;28;20446;-80
2021/06/17 07:01:47;;;;;;;0.77;0.70;;;26.50;73.00;;;27.20;100.00;-21415.41;5072930;28;20431;-79
2021/06/17 07:04:14;;;;;;;0.80;0.60;;;26.60;72.20;;;27.31;100.00;-21418.13;5070608;28;20519;-80
2021/06/17 07:06:42;;;;;;;0.70;0.60;;;26.70;73.30;;;27.43;100.00;-21421.38;5067355;28;20500;-80
2021/06/17 07:09:11;;;;;;;0.80;0.60;;;26.80;70.40;;;27.32;100.00;-21418.53;5072905;28;20459;-79
2021/06/17 07:11:38;;;;;;;0.70;0.60;;;26.80;70.60;;;27.40;100.00;-21420.56;5073889;28;20442;-79
2021/06/17 07:14:07;;;;;;;0.80;0.60;;;26.90;68.70;;;27.62;100.00;-21426.38;5073947;28;20495;-79
2021/06/17 07:16:36;;;;;;;0.80;0.70;;;27.10;70.60;;;27.72;100.00;-21428.94;5055966;28;20525;-80
2021/06/17 07:19:06;;;;;;;0.80;0.70;;;27.20;67.50;;;27.86;100.00;-21432.84;5074275;28;20425;-80
2021/06/17 07:21:34;;;;;;;0.80;0.70;;;27.30;67.10;;;27.98;100.00;-21435.81;5072829;28;20428;-80
2021/06/17 07:24:04;;;;;;;0.70;0.60;;;27.40;66.90;;;28.20;100.00;-21441.63;5071920;28;20447;-80
2021/06/17 07:26:33;;;;;;;0.70;0.60;;;27.50;67.00;;;28.06;100.00;-21437.97;5054894;28;20505;-80
2021/06/17 07:29:05;;;;;;;0.70;0.50;;;27.60;67.90;;;28.24;100.00;-21442.84;5072712;28;20419;-80
2021/06/17 07:31:32;;;;;;;0.70;0.57;;;27.60;63.50;;;28.15;100.00;-21440.41;5056203;28;20430;-79
2021/06/17 07:34:00;;;;;;;0.77;0.60;;;27.70;64.50;;;28.47;100.00;-21448.78;5072657;28;20450;-80
2021/06/17 07:36:28;;;;;;;0.80;0.60;;;27.80;62.50;;;28.40;100.00;-21447.16;5071749;28;20454;-80
2021/06/17 07:38:56;;;;;;;0.70;0.50;;;27.90;62.30;;;28.71;100.00;-21455.13;5071051;28;20865;-80
2021/06/17 07:41:23;;;;;;;0.70;0.60;;;28.00;61.70;;;28.62;100.00;-21452.97;5071992;28;20431;-79
2021/06/17 07:43:52;;;;;;;0.80;0.70;;;28.10;61.60;;;29.10;100.00;-21465.50;5073274;28;20510;-81
2021/06/17 07:46:20;;;;;;;0.70;0.60;;;28.30;60.30;;;29.12;100.00;-21466.03;5072756;28;20423;-79
2021/06/17 07:48:49;;;;;;;0.70;0.60;;;28.50;59.70;;;29.19;100.00;-21467.94;5072776;28;20423;-80
2021/06/17 07:51:17;;;;;;;0.80;0.60;;;28.60;58.70;;;29.46;100.00;-21474.94;5072642;28;20505;-80
2021/06/17 07:53:45;;;;;;;0.70;0.60;;;28.80;56.50;;;29.63;100.00;-21479.50;5072308;28;20496;-81
2021/06/17 07:56:13;;;;;;;0.70;0.53;;;29.00;55.00;;;29.55;100.00;-21477.34;5071409;28;20749;-80
2021/06/17 07:58:43;;;;;;;0.80;0.60;;;29.20;56.70;;;29.87;100.00;-21485.84;5055152;28;20455;-78
2021/06/17 08:01:12;;;;;;;1.80;1.17;;;29.30;52.40;;;30.11;100.00;-21492.03;5071879;28;20442;-80
2021/06/17 08:03:40;;;;;;;0.70;0.60;;;29.60;51.50;;;30.25;100.00;-21495.94;5071601;28;20427;-80
2021/06/17 08:06:08;;;;;;;1.00;0.77;;;29.70;51.80;;;30.54;100.00;-21503.47;5071803;28;20458;-79
2021/06/17 08:08:36;;;;;;;0.70;0.50;;;29.90;49.10;;;30.59;100.00;-21504.81;5072118;28;21040;-80
2021/06/17 08:11:03;;;;;;;0.80;0.70;;;30.10;49.20;;;30.72;100.00;-21508.31;5072712;28;20455;-80
2021/06/17 08:13:49;;;;;;;0.70;0.60;;;30.20;47.20;;;30.85;100.00;-21511.66;5071569;28;20435;-79
2021/06/17 08:16:19;;;;;;;2.00;1.10;;;30.40;49.50;;;31.35;100.00;-21524.84;5071118;28;20459;-79
2021/06/17 08:18:50;;;;;;;0.70;0.50;;;30.60;46.80;;;31.00;100.00;-21515.56;5071592;28;20438;-79
2021/06/17 08:21:18;;;;;;;0.70;0.60;;;30.70;44.90;;;31.21;100.00;-21521.22;5055516;28;21004;-79
2021/06/17 08:23:45;;;;;;;0.73;0.60;;;30.80;43.60;;;31.32;100.00;-21523.91;5071882;28;20459;-80
2021/06/17 08:26:14;;;;;;;0.80;0.60;;;30.90;43.90;;;31.52;100.00;-21529.28;5054334;28;20442;-81
2021/06/17 08:28:42;;;;;;;0.70;0.60;;;31.00;42.00;;;31.76;100.00;-21535.72;5055619;28;20436;-80
2021/06/17 08:31:10;;;;;;;0.77;0.60;;;31.30;41.20;;;32.01;100.00;-21542.03;5067687;28;20441;-80
2021/06/17 08:33:39;;;;;;;0.70;0.50;;;31.50;39.70;;;32.30;100.00;-21549.66;5075977;28;20473;-80
2021/06/17 08:36:08;;;;;;;0.70;0.53;;;31.70;39.20;;;32.37;100.00;-21551.53;5075757;28;20455;-81
2021/06/17 08:38:36;;;;;;;0.80;0.60;;;32.00;38.40;;;32.62;100.00;-21558.22;5060407;28;20459;-80
2021/06/17 08:41:04;;;;;;;1.47;0.73;;;32.20;34.60;;;33.12;100.00;-21571.22;5076019;28;20451;-80
2021/06/17 08:43:51;;;;;;;0.90;0.80;;;32.60;35.90;;;32.94;100.00;-21566.69;5077168;28;20434;-78
2021/06/17 08:46:19;;;;;;;0.80;0.50;;;32.60;33.50;;;33.52;100.00;-21581.81;5077416;28;20435;-80
2021/06/17 08:48:50;;;;;;;0.80;0.60;;;33.00;31.00;;;33.46;100.00;-21580.06;5075937;28;20457;-80
2021/06/17 08:51:20;;;;;;;0.80;0.50;;;33.00;30.20;;;33.93;100.00;-21592.50;5058917;28;20423;-81
2021/06/17 08:53:51;;;;;;;0.80;0.50;;;33.40;30.70;;;34.29;100.00;-21602.00;5058086;28;21000;-82
2021/06/17 08:56:20;;;;;;;0.80;0.50;;;33.80;31.50;;;34.08;100.00;-21596.50;5075759;28;20495;-81
2021/06/17 08:58:49;;;;;;;0.80;0.60;;;33.90;27.50;;;34.02;100.00;-21594.91;5076235;28;20415;-79
2021/06/17 09:01:16;;;;;;;0.80;0.50;;;33.70;25.40;;;34.01;100.00;-21594.66;5070974;28;20562;-79
2021/06/17 09:03:46;;;;;;;0.80;0.50;;;33.80;24.70;;;34.32;100.00;-21602.78;5056482;28;20404;-79
2021/06/17 09:06:18;;;;;;;0.90;0.70;;;34.10;23.00;;;34.69;100.00;-21612.28;5055575;28;20939;-81
2021/06/17 09:08:58;;;;;;;0.90;0.60;;;34.30;23.10;;;35.74;100.00;-21639.91;5055936;28;20444;-79
2021/06/17 09:11:28;;;;;;;1.70;1.60;;;35.00;22.30;;;35.64;100.00;-21637.09;5054714;28;20523;-80
2021/06/17 09:14:14;;;;;;;0.80;0.50;;;35.20;20.10;;;35.69;100.00;-21638.44;5056333;28;20424;-80
2021/06/17 09:16:56;;;;;;;0.80;0.50;;;35.20;19.70;;;35.53;100.00;-21634.44;5055104;28;20454;-81
2021/06/17 09:19:40;;;;;;;0.80;0.50;;;35.50;18.40;;;35.96;100.00;-21645.50;5055045;28;20424;-78
2021/06/17 09:22:12;;;;;;;0.90;0.53;;;36.00;17.10;;;36.16;100.00;-21650.69;5065476;28;20430;-78
2021/06/17 09:24:44;;;;;;;0.90;0.50;;;36.40;16.80;;;36.02;100.00;-21647.09;5074697;28;20447;-81
2021/06/17 09:27:40;;;;;;;0.90;0.60;;;36.50;16.10;;;36.80;100.00;-21667.31;5058627;28;20442;-79
2021/06/17 09:30:22;;;;;;;0.90;0.50;;;36.80;15.60;;;36.72;100.00;-21665.34;5057482;28;20449;-79
2021/06/17 09:32:56;;;;;;;1.23;1.13;;;36.90;15.40;;;36.92;100.00;-21670.66;5057377;28;20439;-82
2021/06/17 09:35:26;;;;;;;1.00;0.60;;;37.10;13.80;;;37.43;100.00;-21683.94;5073749;28;20473;-78
2021/06/17 09:38:01;;;;;;;0.90;0.50;;;37.60;14.10;;;38.01;100.00;-21698.81;5057411;28;20986;-76
2021/06/17 09:40:33;;;;;;;0.90;0.50;;;38.00;13.80;;;38.30;100.00;-21706.50;5074307;28;20179;-79
2021/06/17 09:43:16;;;;;;;0.90;0.60;;;38.50;11.80;;;37.32;100.00;-21681.03;5075278;28;20173;-80
2021/06/17 09:45:59;;;;;;;1.00;0.70;;;38.60;8.70;;;36.79;100.00;-21667.19;5076089;28;20191;-83
2021/06/17 09:48:41;;;;;;;1.23;0.82;;;38.90;6.50;;;37.22;100.00;-21678.50;5075598;28;20185;-82
2021/06/17 09:51:33;;;;;;;0.90;0.50;;;39.20;7.60;;;37.67;100.00;-21690.19;5076087;28;20187;-79
2021/06/17 09:54:17;;;;;;;0.90;0.50;;;39.20;5.00;;;39.45;100.00;-21736.22;5074296;28;20707;-81
2021/06/17 09:56:53;;;;;;;0.90;0.50;;;39.40;5.70;;;39.13;100.00;-21728.00;5075053;28;20224;-80
2021/06/17 09:59:35;;;;;;;0.90;0.60;;;39.80;5.00;;;38.56;100.00;-21713.16;5074753;28;20179;-80
2021/06/17 10:02:03;;;;;;;0.90;0.50;;;39.10;5.00;;;38.59;100.00;-21713.94;5074229;28;20180;-80
2021/06/17 10:04:32;;;;;;;0.90;0.50;;;39.40;5.50;;;38.14;100.00;-21702.28;5058939;28;20672;-82
2021/06/17 10:07:01;;;;;;;1.00;0.68;;;39.50;4.30;;;39.76;100.00;-21744.41;5074038;28;20196;-81
2021/06/17 10:09:33;;;;;;;0.90;0.55;;;39.70;3.20;;;38.87;100.00;-21721.25;5057078;28;20239;-80
2021/06/17 10:12:01;;;;;;;0.90;0.50;;;39.60;6.30;;;37.18;100.00;-21677.44;5056568;28;20196;-80
2021/06/17 10:14:30;;;;;;;0.90;0.60;;;39.20;2.70;;;38.75;100.00;-21718.19;5074024;28;20196;-80
2021/06/17 10:17:03;;;;;;;1.00;0.60;;;39.00;4.60;;;38.94;100.00;-21722.97;5057425;28;20203;-79
2021/06/17 10:19:32;;;;;;;0.90;0.50;;;39.10;3.80;;;39.15;100.00;-21728.53;5072201;28;20215;-78
2021/06/17 10:22:01;;;;;;;0.90;0.50;;;38.90;2.40;;;38.65;100.00;-21715.53;5065344;28;20201;-79
2021/06/17 10:24:35;;;;;;;0.90;0.50;;;38.80;4.60;;;39.08;100.00;-21726.66;5055563;28;20567;-79
2021/06/17 10:27:09;;;;;;;0.90;0.50;;;38.80;3.80;;;39.46;100.00;-21736.59;5052997;28;20209;-79
2021/06/17 10:29:40;;;;;;;1.00;0.60;;;39.40;4.40;;;40.19;100.00;-21755.53;5053332;28;20173;-78